Willis, Michigan
Current Conditions -  °F | °C
As of 9:35 AM on Tuesday 21 Oct 2014 (Local Time) from KYIP Reporting Station
Overcast Overcast  
Wind Chill: 51°   Ceiling: 2900
Heat Index: 51°   Visibility: 10mi
Dew Point: 43°   Wind: 14mph
Humidity: 74%   Direction: 360°N
Pressure: 30"   Gusts: NA
Location:  42.16°N, 83.56°W
Report Text: KYIP 211335Z AUTO 36012KT 10SM SCT012 SCT024 OVC029 11/06 A3000 RMK AO2 T01060061 TSNO
Loading
Personal Weather Stations






























Interactive Weather Map
Tropical Storm Tracking
New forecast layout! Learn more

10-Day Weather Forecast

Advertisements
Track Severe Weather on mobile